This is the latest recevied weather packets stored in our database for station/object TULLARI. If no packets are shown the sender has not sent any weather packets the latest 10 day(s).
| Time | Temp. | Humidity | Pressure | Rain* | Wind** | Luminosity | Snow |
|---|---|---|---|---|---|---|---|
| 1777691229 | 6.67° C | 88% | 1012.9 hPa | - | - | - | - |
| 1777690028 | 6.11° C | 89% | 1013 hPa | - | - | - | - |
| 1777688829 | 6.67° C | 89% | 1013 hPa | - | - | - | - |
| 1777687628 | 6.67° C | 87% | 1013.1 hPa | - | - | - | - |
| 1777686428 | 6.67° C | 87% | 1013.1 hPa | - | - | - | - |
| 1777685228 | 7.22° C | 87% | 1013.2 hPa | - | - | - | - |
| 1777684029 | 6.67° C | 89% | 1013.2 hPa | - | - | - | - |
| 1777682828 | 6.11° C | 92% | 1013.4 hPa | - | - | - | - |
| 1777681628 | 6.11° C | 91% | 1013.6 hPa | - | - | - | - |
| 1777680428 | 6.11° C | 91% | 1013.6 hPa | - | - | - | - |
| 1777679228 | 6.11° C | 89% | 1013.8 hPa | - | - | - | - |
| 1777678027 | 5.56° C | 90% | 1013.9 hPa | - | - | - | - |
| 1777676828 | 6.11° C | 90% | 1014.1 hPa | - | - | - | - |
| 1777675628 | 6.11° C | 89% | 1014.1 hPa | - | - | - | - |
| 1777674428 | 6.11° C | 91% | 1014.2 hPa | - | - | - | - |
| 1777673227 | 5.56° C | 92% | 1014.5 hPa | - | - | - | - |
| 1777672028 | 5.56° C | 92% | 1014.8 hPa | - | - | - | - |
| 1777670827 | 5.56° C | 91% | 1015 hPa | - | - | - | - |
| 1777669627 | 5.56° C | 91% | 1015.3 hPa | - | - | - | - |
| 1777668427 | 6.11° C | 90% | 1015.4 hPa | - | - | - | - |
| 1777667227 | 5.56° C | 90% | 1015.6 hPa | - | - | - | - |
| 1777666026 | 6.11° C | 89% | 1015.9 hPa | - | - | - | - |
| 1777664826 | 6.11° C | 90% | 1016.1 hPa | - | - | - | - |
| 1777663627 | 5.56° C | 92% | 1016.2 hPa | - | - | - | - |
| 1777662427 | 5.56° C | 94% | 1016.4 hPa | - | - | - | - |
* Rain since midnight (hover to see other rain measurements)
** Current wind speed in m/s (hover to see current wind gust speed)